sensor_id;sensor_type;location;lat;lon;timestamp;P1;durP1;ratioP1;P2;durP2;ratioP2
14613;SDS011;7393;51.446;6.800;2023-04-01T00:01:12;7.67;;;2.40;;
14613;SDS011;7393;51.446;6.800;2023-04-01T00:03:40;9.07;;;2.70;;
14613;SDS011;7393;51.446;6.800;2023-04-01T00:06:07;3.10;;;1.90;;
14613;SDS011;7393;51.446;6.800;2023-04-01T00:08:33;4.67;;;2.53;;
14613;SDS011;7393;51.446;6.800;2023-04-01T00:11:00;6.33;;;2.43;;
14613;SDS011;7393;51.446;6.800;2023-04-01T00:13:27;9.43;;;3.40;;
14613;SDS011;7393;51.446;6.800;2023-04-01T00:15:55;5.93;;;2.53;;
14613;SDS011;7393;51.446;6.800;2023-04-01T00:18:23;6.97;;;2.30;;
14613;SDS011;7393;51.446;6.800;2023-04-01T00:20:51;4.47;;;1.87;;
14613;SDS011;7393;51.446;6.800;2023-04-01T00:23:18;5.23;;;2.07;;
14613;SDS011;7393;51.446;6.800;2023-04-01T00:25:46;6.13;;;2.40;;
14613;SDS011;7393;51.446;6.800;2023-04-01T00:28:14;5.80;;;2.40;;
14613;SDS011;7393;51.446;6.800;2023-04-01T00:30:41;7.83;;;3.10;;
14613;SDS011;7393;51.446;6.800;2023-04-01T00:33:09;10.40;;;3.50;;
14613;SDS011;7393;51.446;6.800;2023-04-01T00:35:38;9.33;;;4.07;;
14613;SDS011;7393;51.446;6.800;2023-04-01T00:38:05;7.47;;;4.27;;
14613;SDS011;7393;51.446;6.800;2023-04-01T00:40:33;8.77;;;4.63;;
14613;SDS011;7393;51.446;6.800;2023-04-01T00:43:00;9.50;;;4.00;;
14613;SDS011;7393;51.446;6.800;2023-04-01T00:45:30;11.03;;;4.80;;
14613;SDS011;7393;51.446;6.800;2023-04-01T00:48:01;10.57;;;4.93;;
14613;SDS011;7393;51.446;6.800;2023-04-01T00:50:32;7.23;;;3.30;;
14613;SDS011;7393;51.446;6.800;2023-04-01T00:53:00;5.97;;;2.83;;
14613;SDS011;7393;51.446;6.800;2023-04-01T00:55:29;5.50;;;2.27;;
14613;SDS011;7393;51.446;6.800;2023-04-01T00:57:58;2.33;;;1.70;;
14613;SDS011;7393;51.446;6.800;2023-04-01T01:00:26;5.77;;;2.43;;
14613;SDS011;7393;51.446;6.800;2023-04-01T01:02:53;5.63;;;2.40;;
14613;SDS011;7393;51.446;6.800;2023-04-01T01:05:21;5.27;;;2.70;;
14613;SDS011;7393;51.446;6.800;2023-04-01T01:07:59;6.67;;;2.60;;
14613;SDS011;7393;51.446;6.800;2023-04-01T01:10:29;6.87;;;2.40;;
14613;SDS011;7393;51.446;6.800;2023-04-01T01:13:00;6.70;;;2.50;;
14613;SDS011;7393;51.446;6.800;2023-04-01T01:15:35;7.57;;;3.50;;
14613;SDS011;7393;51.446;6.800;2023-04-01T01:18:09;8.87;;;3.60;;
14613;SDS011;7393;51.446;6.800;2023-04-01T01:20:49;7.67;;;4.40;;
14613;SDS011;7393;51.446;6.800;2023-04-01T01:23:42;6.60;;;3.40;;
14613;SDS011;7393;51.446;6.800;2023-04-01T01:26:38;6.40;;;3.00;;
14613;SDS011;7393;51.446;6.800;2023-04-01T01:29:13;6.37;;;2.90;;
14613;SDS011;7393;51.446;6.800;2023-04-01T01:31:53;6.67;;;3.00;;
14613;SDS011;7393;51.446;6.800;2023-04-01T01:34:28;7.73;;;3.37;;
14613;SDS011;7393;51.446;6.800;2023-04-01T01:37:03;7.57;;;4.20;;
14613;SDS011;7393;51.446;6.800;2023-04-01T01:39:34;11.83;;;4.47;;
14613;SDS011;7393;51.446;6.800;2023-04-01T01:42:03;10.27;;;4.03;;
14613;SDS011;7393;51.446;6.800;2023-04-01T01:44:33;5.27;;;2.60;;
14613;SDS011;7393;51.446;6.800;2023-04-01T01:47:01;5.63;;;2.80;;
14613;SDS011;7393;51.446;6.800;2023-04-01T01:49:29;4.93;;;2.50;;
14613;SDS011;7393;51.446;6.800;2023-04-01T01:51:59;5.77;;;2.40;;
14613;SDS011;7393;51.446;6.800;2023-04-01T01:54:28;9.00;;;3.20;;
14613;SDS011;7393;51.446;6.800;2023-04-01T01:56:55;3.93;;;2.47;;
14613;SDS011;7393;51.446;6.800;2023-04-01T01:59:29;7.60;;;2.90;;
14613;SDS011;7393;51.446;6.800;2023-04-01T02:01:58;6.70;;;3.00;;
14613;SDS011;7393;51.446;6.800;2023-04-01T02:04:32;8.50;;;3.33;;
14613;SDS011;7393;51.446;6.800;2023-04-01T02:07:02;8.27;;;3.07;;
14613;SDS011;7393;51.446;6.800;2023-04-01T02:09:32;5.27;;;2.43;;
14613;SDS011;7393;51.446;6.800;2023-04-01T02:12:00;7.33;;;3.40;;
14613;SDS011;7393;51.446;6.800;2023-04-01T02:14:31;7.10;;;3.90;;
14613;SDS011;7393;51.446;6.800;2023-04-01T02:17:06;7.97;;;3.27;;
14613;SDS011;7393;51.446;6.800;2023-04-01T02:19:36;5.67;;;3.63;;
14613;SDS011;7393;51.446;6.800;2023-04-01T02:22:06;5.50;;;2.80;;
14613;SDS011;7393;51.446;6.800;2023-04-01T02:24:40;5.53;;;2.87;;
14613;SDS011;7393;51.446;6.800;2023-04-01T02:27:08;5.00;;;1.93;;
14613;SDS011;7393;51.446;6.800;2023-04-01T02:29:36;2.90;;;1.70;;
14613;SDS011;7393;51.446;6.800;2023-04-01T02:32:03;1.83;;;0.93;;
14613;SDS011;7393;51.446;6.800;2023-04-01T02:34:31;3.20;;;1.10;;
14613;SDS011;7393;51.446;6.800;2023-04-01T02:36:59;2.73;;;0.90;;
14613;SDS011;7393;51.446;6.800;2023-04-01T02:39:26;2.63;;;0.93;;
14613;SDS011;7393;51.446;6.800;2023-04-01T02:41:55;2.63;;;0.97;;
14613;SDS011;7393;51.446;6.800;2023-04-01T02:44:21;3.97;;;1.20;;
14613;SDS011;7393;51.446;6.800;2023-04-01T02:46:51;2.87;;;1.10;;
14613;SDS011;7393;51.446;6.800;2023-04-01T02:49:18;3.70;;;1.27;;
14613;SDS011;7393;51.446;6.800;2023-04-01T02:51:45;1.67;;;1.10;;
14613;SDS011;7393;51.446;6.800;2023-04-01T02:54:12;3.97;;;1.50;;
14613;SDS011;7393;51.446;6.800;2023-04-01T02:56:39;3.80;;;1.50;;
14613;SDS011;7393;51.446;6.800;2023-04-01T02:59:07;3.23;;;1.53;;
14613;SDS011;7393;51.446;6.800;2023-04-01T03:01:33;4.13;;;1.50;;
14613;SDS011;7393;51.446;6.800;2023-04-01T03:04:00;2.23;;;1.00;;
14613;SDS011;7393;51.446;6.800;2023-04-01T03:06:27;2.50;;;1.30;;
14613;SDS011;7393;51.446;6.800;2023-04-01T03:08:54;2.47;;;1.43;;
14613;SDS011;7393;51.446;6.800;2023-04-01T03:11:21;2.77;;;1.53;;
14613;SDS011;7393;51.446;6.800;2023-04-01T03:13:48;2.47;;;1.70;;
14613;SDS011;7393;51.446;6.800;2023-04-01T03:16:16;4.97;;;1.70;;
14613;SDS011;7393;51.446;6.800;2023-04-01T03:18:43;3.93;;;2.10;;
14613;SDS011;7393;51.446;6.800;2023-04-01T03:21:13;4.50;;;2.03;;
14613;SDS011;7393;51.446;6.800;2023-04-01T03:23:41;4.60;;;2.97;;
14613;SDS011;7393;51.446;6.800;2023-04-01T03:26:08;4.53;;;3.00;;
14613;SDS011;7393;51.446;6.800;2023-04-01T03:28:35;4.13;;;2.63;;
14613;SDS011;7393;51.446;6.800;2023-04-01T03:31:02;3.47;;;1.70;;
14613;SDS011;7393;51.446;6.800;2023-04-01T03:33:30;2.33;;;1.30;;
14613;SDS011;7393;51.446;6.800;2023-04-01T03:35:57;2.37;;;1.00;;
14613;SDS011;7393;51.446;6.800;2023-04-01T03:38:24;5.53;;;1.57;;
14613;SDS011;7393;51.446;6.800;2023-04-01T03:40:50;4.87;;;1.10;;
14613;SDS011;7393;51.446;6.800;2023-04-01T03:43:17;2.57;;;1.20;;
14613;SDS011;7393;51.446;6.800;2023-04-01T03:45:44;2.10;;;1.10;;
14613;SDS011;7393;51.446;6.800;2023-04-01T03:48:11;2.83;;;1.00;;
14613;SDS011;7393;51.446;6.800;2023-04-01T03:50:39;1.63;;;0.93;;
14613;SDS011;7393;51.446;6.800;2023-04-01T03:53:06;2.63;;;1.27;;
14613;SDS011;7393;51.446;6.800;2023-04-01T03:55:35;2.37;;;1.10;;
14613;SDS011;7393;51.446;6.800;2023-04-01T03:58:02;2.43;;;1.20;;
14613;SDS011;7393;51.446;6.800;2023-04-01T04:00:29;2.23;;;1.20;;
14613;SDS011;7393;51.446;6.800;2023-04-01T04:02:56;2.80;;;1.50;;
14613;SDS011;7393;51.446;6.800;2023-04-01T04:05:23;3.10;;;1.40;;
14613;SDS011;7393;51.446;6.800;2023-04-01T04:07:52;2.57;;;1.53;;
14613;SDS011;7393;51.446;6.800;2023-04-01T04:10:20;3.37;;;1.90;;
14613;SDS011;7393;51.446;6.800;2023-04-01T04:12:48;2.37;;;1.80;;
14613;SDS011;7393;51.446;6.800;2023-04-01T04:15:15;3.63;;;2.10;;
14613;SDS011;7393;51.446;6.800;2023-04-01T04:17:43;7.00;;;2.10;;
14613;SDS011;7393;51.446;6.800;2023-04-01T04:20:10;3.47;;;2.00;;
14613;SDS011;7393;51.446;6.800;2023-04-01T04:22:37;4.37;;;2.30;;
14613;SDS011;7393;51.446;6.800;2023-04-01T04:25:06;5.60;;;2.90;;
14613;SDS011;7393;51.446;6.800;2023-04-01T04:27:33;3.23;;;2.07;;
14613;SDS011;7393;51.446;6.800;2023-04-01T04:30:01;2.60;;;2.10;;
14613;SDS011;7393;51.446;6.800;2023-04-01T04:32:28;2.60;;;1.40;;
14613;SDS011;7393;51.446;6.800;2023-04-01T04:34:55;3.70;;;2.07;;
14613;SDS011;7393;51.446;6.800;2023-04-01T04:37:22;2.17;;;1.50;;
14613;SDS011;7393;51.446;6.800;2023-04-01T04:39:50;3.57;;;1.70;;
14613;SDS011;7393;51.446;6.800;2023-04-01T04:42:18;1.70;;;1.27;;
14613;SDS011;7393;51.446;6.800;2023-04-01T04:44:45;3.90;;;1.50;;
14613;SDS011;7393;51.446;6.800;2023-04-01T04:47:12;2.40;;;1.70;;
14613;SDS011;7393;51.446;6.800;2023-04-01T04:49:39;3.27;;;1.90;;
14613;SDS011;7393;51.446;6.800;2023-04-01T04:52:06;3.73;;;1.70;;
14613;SDS011;7393;51.446;6.800;2023-04-01T04:54:32;2.63;;;1.97;;
14613;SDS011;7393;51.446;6.800;2023-04-01T04:56:59;3.70;;;1.93;;
14613;SDS011;7393;51.446;6.800;2023-04-01T04:59:27;2.90;;;1.83;;
14613;SDS011;7393;51.446;6.800;2023-04-01T05:01:54;6.13;;;1.80;;
14613;SDS011;7393;51.446;6.800;2023-04-01T05:04:21;1.87;;;1.40;;
14613;SDS011;7393;51.446;6.800;2023-04-01T05:06:48;4.40;;;1.77;;
14613;SDS011;7393;51.446;6.800;2023-04-01T05:09:14;2.67;;;1.50;;
14613;SDS011;7393;51.446;6.800;2023-04-01T05:11:41;3.80;;;1.70;;
14613;SDS011;7393;51.446;6.800;2023-04-01T05:14:11;2.97;;;1.80;;
14613;SDS011;7393;51.446;6.800;2023-04-01T05:16:40;4.10;;;2.03;;
14613;SDS011;7393;51.446;6.800;2023-04-01T05:19:07;4.43;;;2.30;;
14613;SDS011;7393;51.446;6.800;2023-04-01T05:21:34;2.73;;;2.00;;
14613;SDS011;7393;51.446;6.800;2023-04-01T05:24:00;4.10;;;2.03;;
14613;SDS011;7393;51.446;6.800;2023-04-01T05:26:27;3.70;;;2.30;;
14613;SDS011;7393;51.446;6.800;2023-04-01T05:28:54;2.60;;;2.33;;
14613;SDS011;7393;51.446;6.800;2023-04-01T05:31:21;4.47;;;2.83;;
14613;SDS011;7393;51.446;6.800;2023-04-01T05:33:50;2.80;;;2.43;;
14613;SDS011;7393;51.446;6.800;2023-04-01T05:36:17;4.60;;;3.10;;
14613;SDS011;7393;51.446;6.800;2023-04-01T05:38:44;4.30;;;3.10;;
14613;SDS011;7393;51.446;6.800;2023-04-01T05:41:12;4.40;;;3.40;;
14613;SDS011;7393;51.446;6.800;2023-04-01T05:43:40;5.17;;;3.50;;
14613;SDS011;7393;51.446;6.800;2023-04-01T05:46:07;4.83;;;3.33;;
14613;SDS011;7393;51.446;6.800;2023-04-01T05:48:34;5.70;;;3.70;;
14613;SDS011;7393;51.446;6.800;2023-04-01T05:51:02;5.13;;;3.43;;
14613;SDS011;7393;51.446;6.800;2023-04-01T05:53:30;4.60;;;3.70;;
14613;SDS011;7393;51.446;6.800;2023-04-01T05:56:01;4.90;;;3.40;;
14613;SDS011;7393;51.446;6.800;2023-04-01T05:58:28;6.23;;;3.20;;
14613;SDS011;7393;51.446;6.800;2023-04-01T06:00:59;3.97;;;3.57;;
14613;SDS011;7393;51.446;6.800;2023-04-01T06:03:28;4.80;;;4.30;;
14613;SDS011;7393;51.446;6.800;2023-04-01T06:05:54;7.10;;;4.20;;
14613;SDS011;7393;51.446;6.800;2023-04-01T06:08:23;5.33;;;4.27;;
14613;SDS011;7393;51.446;6.800;2023-04-01T06:10:53;4.77;;;4.00;;
14613;SDS011;7393;51.446;6.800;2023-04-01T06:13:30;6.37;;;4.47;;
14613;SDS011;7393;51.446;6.800;2023-04-01T06:16:07;4.93;;;4.37;;
14613;SDS011;7393;51.446;6.800;2023-04-01T06:18:48;6.27;;;4.77;;
14613;SDS011;7393;51.446;6.800;2023-04-01T06:24:59;5.77;;;4.40;;
14613;SDS011;7393;51.446;6.800;2023-04-01T06:27:45;5.90;;;4.67;;
14613;SDS011;7393;51.446;6.800;2023-04-01T06:30:27;7.20;;;4.67;;
14613;SDS011;7393;51.446;6.800;2023-04-01T06:33:10;6.83;;;4.83;;
14613;SDS011;7393;51.446;6.800;2023-04-01T06:36:10;6.80;;;4.70;;
14613;SDS011;7393;51.446;6.800;2023-04-01T06:39:00;6.90;;;4.73;;
14613;SDS011;7393;51.446;6.800;2023-04-01T06:41:47;5.90;;;4.73;;
14613;SDS011;7393;51.446;6.800;2023-04-01T06:44:40;8.37;;;5.07;;
14613;SDS011;7393;51.446;6.800;2023-04-01T06:47:19;7.07;;;4.83;;
14613;SDS011;7393;51.446;6.800;2023-04-01T06:49:55;7.47;;;5.10;;
14613;SDS011;7393;51.446;6.800;2023-04-01T06:52:30;7.30;;;4.70;;
14613;SDS011;7393;51.446;6.800;2023-04-01T06:55:08;6.33;;;4.30;;
14613;SDS011;7393;51.446;6.800;2023-04-01T06:57:47;9.13;;;5.03;;
14613;SDS011;7393;51.446;6.800;2023-04-01T07:00:18;9.40;;;4.67;;
14613;SDS011;7393;51.446;6.800;2023-04-01T07:02:53;6.90;;;4.50;;
14613;SDS011;7393;51.446;6.800;2023-04-01T07:05:23;8.57;;;4.33;;
14613;SDS011;7393;51.446;6.800;2023-04-01T07:07:53;5.47;;;3.50;;
14613;SDS011;7393;51.446;6.800;2023-04-01T07:10:27;4.53;;;3.80;;
14613;SDS011;7393;51.446;6.800;2023-04-01T07:13:02;4.47;;;3.33;;
14613;SDS011;7393;51.446;6.800;2023-04-01T07:15:36;6.20;;;3.40;;
14613;SDS011;7393;51.446;6.800;2023-04-01T07:18:08;6.87;;;4.20;;
14613;SDS011;7393;51.446;6.800;2023-04-01T07:20:41;6.80;;;3.80;;
14613;SDS011;7393;51.446;6.800;2023-04-01T07:23:10;4.87;;;3.97;;
14613;SDS011;7393;51.446;6.800;2023-04-01T07:25:43;5.27;;;3.10;;
14613;SDS011;7393;51.446;6.800;2023-04-01T07:28:13;5.17;;;3.80;;
14613;SDS011;7393;51.446;6.800;2023-04-01T07:30:45;6.43;;;4.20;;
14613;SDS011;7393;51.446;6.800;2023-04-01T07:33:19;3.63;;;3.33;;
14613;SDS011;7393;51.446;6.800;2023-04-01T07:35:54;6.80;;;3.63;;
14613;SDS011;7393;51.446;6.800;2023-04-01T07:38:26;4.97;;;3.40;;
14613;SDS011;7393;51.446;6.800;2023-04-01T07:41:02;5.53;;;3.60;;
14613;SDS011;7393;51.446;6.800;2023-04-01T07:43:47;8.03;;;4.07;;
14613;SDS011;7393;51.446;6.800;2023-04-01T07:46:23;7.17;;;4.10;;
14613;SDS011;7393;51.446;6.800;2023-04-01T07:49:07;4.07;;;3.60;;
14613;SDS011;7393;51.446;6.800;2023-04-01T07:51:40;5.47;;;3.63;;
14613;SDS011;7393;51.446;6.800;2023-04-01T07:54:17;4.93;;;3.83;;
14613;SDS011;7393;51.446;6.800;2023-04-01T07:56:49;5.40;;;3.73;;
14613;SDS011;7393;51.446;6.800;2023-04-01T07:59:24;5.37;;;4.10;;
14613;SDS011;7393;51.446;6.800;2023-04-01T08:02:01;4.97;;;4.30;;
14613;SDS011;7393;51.446;6.800;2023-04-01T08:04:36;5.53;;;4.23;;
14613;SDS011;7393;51.446;6.800;2023-04-01T08:07:09;4.93;;;4.40;;
14613;SDS011;7393;51.446;6.800;2023-04-01T08:09:43;5.70;;;4.40;;
14613;SDS011;7393;51.446;6.800;2023-04-01T08:12:21;6.33;;;4.40;;
14613;SDS011;7393;51.446;6.800;2023-04-01T08:15:07;5.30;;;4.03;;
14613;SDS011;7393;51.446;6.800;2023-04-01T08:17:44;6.97;;;4.80;;
14613;SDS011;7393;51.446;6.800;2023-04-01T08:20:19;6.73;;;4.83;;
14613;SDS011;7393;51.446;6.800;2023-04-01T08:22:57;7.37;;;4.73;;
14613;SDS011;7393;51.446;6.800;2023-04-01T08:25:29;6.23;;;4.57;;
14613;SDS011;7393;51.446;6.800;2023-04-01T08:27:59;5.67;;;4.93;;
14613;SDS011;7393;51.446;6.800;2023-04-01T08:30:35;6.43;;;4.93;;
14613;SDS011;7393;51.446;6.800;2023-04-01T08:33:09;4.87;;;4.37;;
14613;SDS011;7393;51.446;6.800;2023-04-01T08:35:40;4.90;;;4.40;;
14613;SDS011;7393;51.446;6.800;2023-04-01T08:38:15;7.60;;;4.40;;
14613;SDS011;7393;51.446;6.800;2023-04-01T08:40:53;7.33;;;4.60;;
14613;SDS011;7393;51.446;6.800;2023-04-01T08:43:28;7.27;;;4.83;;
14613;SDS011;7393;51.446;6.800;2023-04-01T08:46:21;6.03;;;3.93;;
14613;SDS011;7393;51.446;6.800;2023-04-01T08:49:20;6.77;;;4.47;;
14613;SDS011;7393;51.446;6.800;2023-04-01T08:52:05;7.07;;;4.20;;
14613;SDS011;7393;51.446;6.800;2023-04-01T08:54:52;5.37;;;4.43;;
14613;SDS011;7393;51.446;6.800;2023-04-01T08:58:08;5.00;;;4.20;;
14613;SDS011;7393;51.446;6.800;2023-04-01T09:00:57;5.33;;;4.43;;
14613;SDS011;7393;51.446;6.800;2023-04-01T09:03:43;5.30;;;4.63;;
14613;SDS011;7393;51.446;6.800;2023-04-01T09:06:21;5.83;;;4.83;;
14613;SDS011;7393;51.446;6.800;2023-04-01T09:12:02;7.83;;;5.40;;
14613;SDS011;7393;51.446;6.800;2023-04-01T09:15:13;7.13;;;4.93;;
14613;SDS011;7393;51.446;6.800;2023-04-01T09:17:58;6.80;;;5.67;;
14613;SDS011;7393;51.446;6.800;2023-04-01T09:20:49;7.13;;;5.23;;
14613;SDS011;7393;51.446;6.800;2023-04-01T09:23:40;9.43;;;6.10;;
14613;SDS011;7393;51.446;6.800;2023-04-01T09:26:33;7.67;;;6.00;;
14613;SDS011;7393;51.446;6.800;2023-04-01T09:29:20;9.03;;;6.53;;
14613;SDS011;7393;51.446;6.800;2023-04-01T09:34:54;7.47;;;6.33;;
14613;SDS011;7393;51.446;6.800;2023-04-01T09:37:29;8.03;;;6.70;;
14613;SDS011;7393;51.446;6.800;2023-04-01T09:40:17;11.33;;;7.60;;
14613;SDS011;7393;51.446;6.800;2023-04-01T09:42:56;9.73;;;7.53;;
14613;SDS011;7393;51.446;6.800;2023-04-01T09:45:41;11.27;;;7.77;;
14613;SDS011;7393;51.446;6.800;2023-04-01T09:48:28;10.37;;;7.90;;
14613;SDS011;7393;51.446;6.800;2023-04-01T09:51:09;11.57;;;7.67;;
14613;SDS011;7393;51.446;6.800;2023-04-01T09:53:50;12.67;;;8.10;;
14613;SDS011;7393;51.446;6.800;2023-04-01T09:59:32;10.97;;;7.60;;
14613;SDS011;7393;51.446;6.800;2023-04-01T10:05:39;11.03;;;7.97;;
14613;SDS011;7393;51.446;6.800;2023-04-01T10:08:28;10.53;;;7.97;;
14613;SDS011;7393;51.446;6.800;2023-04-01T10:11:24;13.07;;;8.30;;
14613;SDS011;7393;51.446;6.800;2023-04-01T10:14:23;15.23;;;9.63;;
14613;SDS011;7393;51.446;6.800;2023-04-01T10:20:23;15.50;;;11.00;;
14613;SDS011;7393;51.446;6.800;2023-04-01T10:23:11;13.67;;;9.60;;
14613;SDS011;7393;51.446;6.800;2023-04-01T10:26:09;16.87;;;9.97;;
14613;SDS011;7393;51.446;6.800;2023-04-01T10:32:14;11.07;;;8.67;;
14613;SDS011;7393;51.446;6.800;2023-04-01T10:38:02;13.00;;;9.03;;
14613;SDS011;7393;51.446;6.800;2023-04-01T10:41:06;12.03;;;8.47;;
14613;SDS011;7393;51.446;6.800;2023-04-01T10:43:57;14.40;;;8.33;;
14613;SDS011;7393;51.446;6.800;2023-04-01T10:49:49;12.83;;;9.47;;
14613;SDS011;7393;51.446;6.800;2023-04-01T10:55:51;11.83;;;9.30;;
14613;SDS011;7393;51.446;6.800;2023-04-01T10:59:02;11.23;;;8.90;;
14613;SDS011;7393;51.446;6.800;2023-04-01T11:05:19;14.07;;;9.17;;
14613;SDS011;7393;51.446;6.800;2023-04-01T11:08:38;11.23;;;9.40;;
14613;SDS011;7393;51.446;6.800;2023-04-01T11:12:03;13.27;;;9.73;;
14613;SDS011;7393;51.446;6.800;2023-04-01T11:15:04;13.67;;;10.30;;
14613;SDS011;7393;51.446;6.800;2023-04-01T11:24:05;13.70;;;9.77;;
14613;SDS011;7393;51.446;6.800;2023-04-01T11:26:53;12.60;;;9.27;;
14613;SDS011;7393;51.446;6.800;2023-04-01T11:29:34;12.80;;;10.00;;
14613;SDS011;7393;51.446;6.800;2023-04-01T11:32:15;14.40;;;10.67;;
14613;SDS011;7393;51.446;6.800;2023-04-01T11:35:01;12.20;;;10.00;;
14613;SDS011;7393;51.446;6.800;2023-04-01T11:37:49;15.27;;;10.57;;
14613;SDS011;7393;51.446;6.800;2023-04-01T11:40:27;13.00;;;9.67;;
14613;SDS011;7393;51.446;6.800;2023-04-01T11:43:01;15.00;;;10.50;;
14613;SDS011;7393;51.446;6.800;2023-04-01T11:45:36;13.97;;;10.70;;
14613;SDS011;7393;51.446;6.800;2023-04-01T11:48:15;12.17;;;9.53;;
14613;SDS011;7393;51.446;6.800;2023-04-01T11:51:04;12.47;;;9.20;;
14613;SDS011;7393;51.446;6.800;2023-04-01T11:53:47;14.93;;;10.10;;
14613;SDS011;7393;51.446;6.800;2023-04-01T11:56:36;14.60;;;10.47;;
14613;SDS011;7393;51.446;6.800;2023-04-01T11:59:27;12.73;;;9.27;;
14613;SDS011;7393;51.446;6.800;2023-04-01T12:02:11;15.43;;;10.00;;
14613;SDS011;7393;51.446;6.800;2023-04-01T12:04:49;14.07;;;10.13;;
14613;SDS011;7393;51.446;6.800;2023-04-01T12:07:47;14.73;;;9.00;;
14613;SDS011;7393;51.446;6.800;2023-04-01T12:10:21;12.57;;;9.60;;
14613;SDS011;7393;51.446;6.800;2023-04-01T12:12:58;14.83;;;10.53;;
14613;SDS011;7393;51.446;6.800;2023-04-01T12:15:32;9.63;;;8.63;;
14613;SDS011;7393;51.446;6.800;2023-04-01T12:18:12;10.73;;;8.20;;
14613;SDS011;7393;51.446;6.800;2023-04-01T12:20:48;12.23;;;8.73;;
14613;SDS011;7393;51.446;6.800;2023-04-01T12:23:38;10.80;;;8.80;;
14613;SDS011;7393;51.446;6.800;2023-04-01T12:26:39;11.47;;;9.43;;
14613;SDS011;7393;51.446;6.800;2023-04-01T12:29:41;12.30;;;8.90;;
14613;SDS011;7393;51.446;6.800;2023-04-01T12:32:21;10.30;;;8.03;;
14613;SDS011;7393;51.446;6.800;2023-04-01T12:34:58;10.10;;;7.90;;
14613;SDS011;7393;51.446;6.800;2023-04-01T12:37:41;10.43;;;7.50;;
14613;SDS011;7393;51.446;6.800;2023-04-01T12:40:20;10.37;;;7.83;;
14613;SDS011;7393;51.446;6.800;2023-04-01T12:42:59;9.97;;;8.00;;
14613;SDS011;7393;51.446;6.800;2023-04-01T12:45:38;18.67;;;7.97;;
14613;SDS011;7393;51.446;6.800;2023-04-01T12:51:41;10.90;;;8.40;;
14613;SDS011;7393;51.446;6.800;2023-04-01T12:54:31;11.63;;;7.43;;
14613;SDS011;7393;51.446;6.800;2023-04-01T12:57:43;9.47;;;7.83;;
14613;SDS011;7393;51.446;6.800;2023-04-01T13:00:25;10.87;;;7.97;;
14613;SDS011;7393;51.446;6.800;2023-04-01T13:03:05;9.90;;;8.03;;
14613;SDS011;7393;51.446;6.800;2023-04-01T13:08:42;10.53;;;7.23;;
14613;SDS011;7393;51.446;6.800;2023-04-01T13:11:18;8.83;;;7.50;;
14613;SDS011;7393;51.446;6.800;2023-04-01T13:14:00;10.80;;;7.87;;
14613;SDS011;7393;51.446;6.800;2023-04-01T13:16:48;12.50;;;7.67;;
14613;SDS011;7393;51.446;6.800;2023-04-01T13:19:21;11.53;;;8.00;;
14613;SDS011;7393;51.446;6.800;2023-04-01T13:21:54;11.87;;;8.17;;
14613;SDS011;7393;51.446;6.800;2023-04-01T13:27:18;9.40;;;7.10;;
14613;SDS011;7393;51.446;6.800;2023-04-01T13:29:55;9.70;;;7.67;;
14613;SDS011;7393;51.446;6.800;2023-04-01T13:32:29;11.97;;;7.40;;
14613;SDS011;7393;51.446;6.800;2023-04-01T13:38:00;10.67;;;7.73;;
14613;SDS011;7393;51.446;6.800;2023-04-01T13:40:43;9.50;;;7.03;;
14613;SDS011;7393;51.446;6.800;2023-04-01T13:43:22;11.43;;;7.77;;
14613;SDS011;7393;51.446;6.800;2023-04-01T13:46:05;11.43;;;7.47;;
14613;SDS011;7393;51.446;6.800;2023-04-01T13:48:45;8.40;;;7.13;;
14613;SDS011;7393;51.446;6.800;2023-04-01T13:54:16;10.33;;;8.13;;
14613;SDS011;7393;51.446;6.800;2023-04-01T13:56:57;9.67;;;7.23;;
14613;SDS011;7393;51.446;6.800;2023-04-01T13:59:43;10.60;;;7.83;;
14613;SDS011;7393;51.446;6.800;2023-04-01T14:02:31;11.80;;;8.17;;
14613;SDS011;7393;51.446;6.800;2023-04-01T14:05:20;7.77;;;6.97;;
14613;SDS011;7393;51.446;6.800;2023-04-01T14:08:00;8.70;;;7.70;;
14613;SDS011;7393;51.446;6.800;2023-04-01T14:10:35;8.47;;;7.30;;
14613;SDS011;7393;51.446;6.800;2023-04-01T14:13:09;8.87;;;7.00;;
14613;SDS011;7393;51.446;6.800;2023-04-01T14:15:50;10.03;;;7.70;;
14613;SDS011;7393;51.446;6.800;2023-04-01T14:18:36;8.50;;;6.70;;
14613;SDS011;7393;51.446;6.800;2023-04-01T14:21:16;10.07;;;7.00;;
14613;SDS011;7393;51.446;6.800;2023-04-01T14:26:57;17.60;;;8.17;;
14613;SDS011;7393;51.446;6.800;2023-04-01T14:29:39;8.37;;;7.43;;
14613;SDS011;7393;51.446;6.800;2023-04-01T14:32:22;10.17;;;7.40;;
14613;SDS011;7393;51.446;6.800;2023-04-01T14:34:55;10.37;;;7.47;;
14613;SDS011;7393;51.446;6.800;2023-04-01T14:40:27;10.17;;;7.43;;
14613;SDS011;7393;51.446;6.800;2023-04-01T14:46:05;10.10;;;7.23;;
14613;SDS011;7393;51.446;6.800;2023-04-01T14:48:56;9.57;;;6.80;;
14613;SDS011;7393;51.446;6.800;2023-04-01T14:51:28;8.80;;;5.87;;
14613;SDS011;7393;51.446;6.800;2023-04-01T14:54:08;8.43;;;6.80;;
14613;SDS011;7393;51.446;6.800;2023-04-01T14:56:47;8.80;;;6.77;;
14613;SDS011;7393;51.446;6.800;2023-04-01T14:59:25;8.13;;;6.20;;
14613;SDS011;7393;51.446;6.800;2023-04-01T15:01:55;8.30;;;6.27;;
14613;SDS011;7393;51.446;6.800;2023-04-01T15:04:41;7.63;;;6.30;;
14613;SDS011;7393;51.446;6.800;2023-04-01T15:10:53;8.17;;;6.43;;
14613;SDS011;7393;51.446;6.800;2023-04-01T15:16:34;7.30;;;5.70;;
14613;SDS011;7393;51.446;6.800;2023-04-01T15:19:14;6.80;;;6.10;;
14613;SDS011;7393;51.446;6.800;2023-04-01T15:21:53;7.23;;;5.73;;
14613;SDS011;7393;51.446;6.800;2023-04-01T15:24:35;11.43;;;6.27;;
14613;SDS011;7393;51.446;6.800;2023-04-01T15:27:15;11.10;;;6.37;;
14613;SDS011;7393;51.446;6.800;2023-04-01T15:29:56;9.07;;;6.60;;
14613;SDS011;7393;51.446;6.800;2023-04-01T15:32:32;10.20;;;6.50;;
14613;SDS011;7393;51.446;6.800;2023-04-01T15:35:15;9.33;;;6.50;;
14613;SDS011;7393;51.446;6.800;2023-04-01T15:37:53;7.07;;;5.73;;
14613;SDS011;7393;51.446;6.800;2023-04-01T15:40:23;7.60;;;5.83;;
14613;SDS011;7393;51.446;6.800;2023-04-01T15:42:59;6.47;;;5.60;;
14613;SDS011;7393;51.446;6.800;2023-04-01T15:45:40;6.73;;;5.47;;
14613;SDS011;7393;51.446;6.800;2023-04-01T15:48:17;6.53;;;5.07;;
14613;SDS011;7393;51.446;6.800;2023-04-01T15:50:54;9.97;;;5.80;;
14613;SDS011;7393;51.446;6.800;2023-04-01T15:53:41;7.73;;;5.47;;
14613;SDS011;7393;51.446;6.800;2023-04-01T15:56:36;10.30;;;5.70;;
14613;SDS011;7393;51.446;6.800;2023-04-01T15:59:19;7.93;;;4.90;;
14613;SDS011;7393;51.446;6.800;2023-04-01T16:01:59;7.23;;;5.13;;
14613;SDS011;7393;51.446;6.800;2023-04-01T16:04:43;7.07;;;5.20;;
14613;SDS011;7393;51.446;6.800;2023-04-01T16:07:19;6.80;;;5.70;;
14613;SDS011;7393;51.446;6.800;2023-04-01T16:10:01;5.80;;;5.10;;
14613;SDS011;7393;51.446;6.800;2023-04-01T16:12:42;10.97;;;5.97;;
14613;SDS011;7393;51.446;6.800;2023-04-01T16:15:21;8.37;;;5.40;;
14613;SDS011;7393;51.446;6.800;2023-04-01T16:18:01;5.60;;;5.03;;
14613;SDS011;7393;51.446;6.800;2023-04-01T16:20:51;7.40;;;5.47;;
14613;SDS011;7393;51.446;6.800;2023-04-01T16:23:22;6.80;;;4.80;;
14613;SDS011;7393;51.446;6.800;2023-04-01T16:25:59;5.53;;;4.93;;
14613;SDS011;7393;51.446;6.800;2023-04-01T16:28:32;5.80;;;4.73;;
14613;SDS011;7393;51.446;6.800;2023-04-01T16:31:04;6.67;;;5.00;;
14613;SDS011;7393;51.446;6.800;2023-04-01T16:33:36;7.17;;;5.00;;
14613;SDS011;7393;51.446;6.800;2023-04-01T16:36:13;5.77;;;4.57;;
14613;SDS011;7393;51.446;6.800;2023-04-01T16:38:49;6.87;;;5.23;;
14613;SDS011;7393;51.446;6.800;2023-04-01T16:41:26;6.33;;;4.40;;
14613;SDS011;7393;51.446;6.800;2023-04-01T16:43:58;5.27;;;4.70;;
14613;SDS011;7393;51.446;6.800;2023-04-01T16:46:36;6.20;;;4.83;;
14613;SDS011;7393;51.446;6.800;2023-04-01T16:49:15;7.47;;;5.47;;
14613;SDS011;7393;51.446;6.800;2023-04-01T16:51:52;6.87;;;5.23;;
14613;SDS011;7393;51.446;6.800;2023-04-01T16:54:27;8.00;;;5.93;;
14613;SDS011;7393;51.446;6.800;2023-04-01T16:57:03;8.13;;;5.93;;
14613;SDS011;7393;51.446;6.800;2023-04-01T16:59:44;9.60;;;6.50;;
14613;SDS011;7393;51.446;6.800;2023-04-01T17:02:20;7.10;;;6.40;;
14613;SDS011;7393;51.446;6.800;2023-04-01T17:04:57;8.23;;;6.40;;